sensor_id;sensor_type;location;lat;lon;timestamp;P1;durP1;ratioP1;P2;durP2;ratioP2
57443;SDS011;43289;52.962;6.196;2024-02-21T00:00:51;13.88;;;3.60;;
57443;SDS011;43289;52.962;6.196;2024-02-21T00:03:17;14.90;;;4.18;;
57443;SDS011;43289;52.962;6.196;2024-02-21T00:05:44;13.20;;;3.67;;
57443;SDS011;43289;52.962;6.196;2024-02-21T00:08:10;8.98;;;1.92;;
57443;SDS011;43289;52.962;6.196;2024-02-21T00:10:36;17.40;;;4.03;;
57443;SDS011;43289;52.962;6.196;2024-02-21T00:13:02;11.40;;;4.18;;
57443;SDS011;43289;52.962;6.196;2024-02-21T00:15:29;10.35;;;3.35;;
57443;SDS011;43289;52.962;6.196;2024-02-21T00:17:55;16.92;;;4.22;;
57443;SDS011;43289;52.962;6.196;2024-02-21T00:20:21;10.10;;;3.35;;
57443;SDS011;43289;52.962;6.196;2024-02-21T00:22:47;14.65;;;4.22;;
57443;SDS011;43289;52.962;6.196;2024-02-21T00:25:13;16.23;;;5.30;;
57443;SDS011;43289;52.962;6.196;2024-02-21T00:27:39;17.02;;;5.70;;
57443;SDS011;43289;52.962;6.196;2024-02-21T00:30:05;12.57;;;4.80;;
57443;SDS011;43289;52.962;6.196;2024-02-21T00:32:31;14.52;;;3.92;;
57443;SDS011;43289;52.962;6.196;2024-02-21T00:34:59;20.35;;;4.07;;
57443;SDS011;43289;52.962;6.196;2024-02-21T00:37:26;13.57;;;4.82;;
57443;SDS011;43289;52.962;6.196;2024-02-21T00:39:53;16.10;;;4.03;;
57443;SDS011;43289;52.962;6.196;2024-02-21T00:42:19;18.42;;;4.72;;
57443;SDS011;43289;52.962;6.196;2024-02-21T00:44:46;16.70;;;5.55;;
57443;SDS011;43289;52.962;6.196;2024-02-21T00:47:12;17.15;;;5.32;;
57443;SDS011;43289;52.962;6.196;2024-02-21T00:49:38;16.58;;;4.85;;
57443;SDS011;43289;52.962;6.196;2024-02-21T00:52:04;14.23;;;4.50;;
57443;SDS011;43289;52.962;6.196;2024-02-21T00:54:30;15.18;;;5.75;;
57443;SDS011;43289;52.962;6.196;2024-02-21T00:56:56;8.90;;;3.30;;
57443;SDS011;43289;52.962;6.196;2024-02-21T00:59:22;11.48;;;4.47;;
57443;SDS011;43289;52.962;6.196;2024-02-21T01:01:48;15.80;;;4.30;;
57443;SDS011;43289;52.962;6.196;2024-02-21T01:04:15;10.13;;;3.58;;
57443;SDS011;43289;52.962;6.196;2024-02-21T01:06:41;15.13;;;4.40;;
57443;SDS011;43289;52.962;6.196;2024-02-21T01:09:09;14.32;;;4.95;;
57443;SDS011;43289;52.962;6.196;2024-02-21T01:11:35;14.38;;;5.07;;
57443;SDS011;43289;52.962;6.196;2024-02-21T01:14:01;16.58;;;4.85;;
57443;SDS011;43289;52.962;6.196;2024-02-21T01:16:27;12.60;;;4.18;;
57443;SDS011;43289;52.962;6.196;2024-02-21T01:18:53;17.10;;;5.47;;
57443;SDS011;43289;52.962;6.196;2024-02-21T01:21:20;18.35;;;6.28;;
57443;SDS011;43289;52.962;6.196;2024-02-21T01:23:46;17.00;;;5.60;;
57443;SDS011;43289;52.962;6.196;2024-02-21T01:26:12;22.05;;;7.00;;
57443;SDS011;43289;52.962;6.196;2024-02-21T01:28:40;19.15;;;6.22;;
57443;SDS011;43289;52.962;6.196;2024-02-21T01:31:06;16.67;;;5.50;;
57443;SDS011;43289;52.962;6.196;2024-02-21T01:33:33;23.92;;;6.40;;
57443;SDS011;43289;52.962;6.196;2024-02-21T01:36:03;16.38;;;5.68;;
57443;SDS011;43289;52.962;6.196;2024-02-21T01:38:33;12.45;;;4.22;;
57443;SDS011;43289;52.962;6.196;2024-02-21T01:40:59;16.40;;;5.00;;
57443;SDS011;43289;52.962;6.196;2024-02-21T01:43:25;16.73;;;5.15;;
57443;SDS011;43289;52.962;6.196;2024-02-21T01:45:55;13.15;;;5.32;;
57443;SDS011;43289;52.962;6.196;2024-02-21T01:48:22;17.88;;;7.60;;
57443;SDS011;43289;52.962;6.196;2024-02-21T01:50:52;12.35;;;5.25;;
57443;SDS011;43289;52.962;6.196;2024-02-21T01:53:27;18.33;;;4.72;;
57443;SDS011;43289;52.962;6.196;2024-02-21T01:55:55;25.63;;;7.38;;
57443;SDS011;43289;52.962;6.196;2024-02-21T01:58:21;19.13;;;5.38;;
57443;SDS011;43289;52.962;6.196;2024-02-21T02:00:47;21.50;;;5.65;;
57443;SDS011;43289;52.962;6.196;2024-02-21T02:03:14;22.40;;;6.22;;
57443;SDS011;43289;52.962;6.196;2024-02-21T02:05:48;20.58;;;6.82;;
57443;SDS011;43289;52.962;6.196;2024-02-21T02:08:14;15.82;;;6.00;;
57443;SDS011;43289;52.962;6.196;2024-02-21T02:10:41;24.23;;;6.57;;
57443;SDS011;43289;52.962;6.196;2024-02-21T02:13:07;21.08;;;7.53;;
57443;SDS011;43289;52.962;6.196;2024-02-21T02:15:46;23.38;;;7.57;;
57443;SDS011;43289;52.962;6.196;2024-02-21T02:18:14;11.90;;;4.68;;
57443;SDS011;43289;52.962;6.196;2024-02-21T02:20:40;27.15;;;7.72;;
57443;SDS011;43289;52.962;6.196;2024-02-21T02:23:11;25.15;;;7.35;;
57443;SDS011;43289;52.962;6.196;2024-02-21T02:25:38;21.70;;;6.63;;
57443;SDS011;43289;52.962;6.196;2024-02-21T02:28:08;10.27;;;3.60;;
57443;SDS011;43289;52.962;6.196;2024-02-21T02:30:35;28.23;;;7.78;;
57443;SDS011;43289;52.962;6.196;2024-02-21T02:33:02;31.13;;;7.65;;
57443;SDS011;43289;52.962;6.196;2024-02-21T02:35:28;16.52;;;6.75;;
57443;SDS011;43289;52.962;6.196;2024-02-21T02:37:58;18.80;;;6.82;;
57443;SDS011;43289;52.962;6.196;2024-02-21T02:40:24;24.17;;;6.90;;
57443;SDS011;43289;52.962;6.196;2024-02-21T02:42:51;20.58;;;6.65;;
57443;SDS011;43289;52.962;6.196;2024-02-21T02:45:20;19.73;;;6.60;;
57443;SDS011;43289;52.962;6.196;2024-02-21T02:47:47;24.98;;;7.65;;
57443;SDS011;43289;52.962;6.196;2024-02-21T02:50:13;27.23;;;8.23;;
57443;SDS011;43289;52.962;6.196;2024-02-21T02:52:39;18.38;;;5.80;;
57443;SDS011;43289;52.962;6.196;2024-02-21T02:55:07;21.67;;;7.28;;
57443;SDS011;43289;52.962;6.196;2024-02-21T02:57:33;21.52;;;6.05;;
57443;SDS011;43289;52.962;6.196;2024-02-21T02:59:59;22.02;;;6.88;;
57443;SDS011;43289;52.962;6.196;2024-02-21T03:02:25;19.38;;;6.45;;
57443;SDS011;43289;52.962;6.196;2024-02-21T03:04:51;29.70;;;7.07;;
57443;SDS011;43289;52.962;6.196;2024-02-21T03:07:18;20.05;;;6.93;;
57443;SDS011;43289;52.962;6.196;2024-02-21T03:09:44;24.83;;;6.82;;
57443;SDS011;43289;52.962;6.196;2024-02-21T03:12:10;27.10;;;8.25;;
57443;SDS011;43289;52.962;6.196;2024-02-21T03:14:37;21.88;;;7.30;;
57443;SDS011;43289;52.962;6.196;2024-02-21T03:17:03;31.48;;;8.15;;
57443;SDS011;43289;52.962;6.196;2024-02-21T03:19:30;23.23;;;7.50;;
57443;SDS011;43289;52.962;6.196;2024-02-21T03:21:56;30.02;;;8.02;;
57443;SDS011;43289;52.962;6.196;2024-02-21T03:24:22;25.67;;;8.15;;
57443;SDS011;43289;52.962;6.196;2024-02-21T03:26:48;28.92;;;8.32;;
57443;SDS011;43289;52.962;6.196;2024-02-21T03:29:16;18.15;;;8.05;;
57443;SDS011;43289;52.962;6.196;2024-02-21T03:31:42;24.10;;;8.38;;
57443;SDS011;43289;52.962;6.196;2024-02-21T03:34:11;28.85;;;8.50;;
57443;SDS011;43289;52.962;6.196;2024-02-21T03:36:38;25.70;;;8.40;;
57443;SDS011;43289;52.962;6.196;2024-02-21T03:39:04;14.05;;;6.85;;
57443;SDS011;43289;52.962;6.196;2024-02-21T03:41:31;23.05;;;8.70;;
57443;SDS011;43289;52.962;6.196;2024-02-21T03:44:00;22.58;;;8.32;;
57443;SDS011;43289;52.962;6.196;2024-02-21T03:46:27;17.85;;;5.85;;
57443;SDS011;43289;52.962;6.196;2024-02-21T03:48:53;14.98;;;6.78;;
57443;SDS011;43289;52.962;6.196;2024-02-21T03:51:19;14.27;;;6.53;;
57443;SDS011;43289;52.962;6.196;2024-02-21T03:53:46;16.75;;;6.40;;
57443;SDS011;43289;52.962;6.196;2024-02-21T03:56:15;19.10;;;6.07;;
57443;SDS011;43289;52.962;6.196;2024-02-21T03:58:41;23.85;;;7.57;;
57443;SDS011;43289;52.962;6.196;2024-02-21T04:01:07;21.02;;;6.38;;
57443;SDS011;43289;52.962;6.196;2024-02-21T04:03:33;22.27;;;7.32;;
57443;SDS011;43289;52.962;6.196;2024-02-21T04:06:00;16.15;;;6.13;;
57443;SDS011;43289;52.962;6.196;2024-02-21T04:08:28;22.55;;;9.02;;
57443;SDS011;43289;52.962;6.196;2024-02-21T04:11:04;23.63;;;7.72;;
57443;SDS011;43289;52.962;6.196;2024-02-21T04:13:30;17.52;;;7.65;;
57443;SDS011;43289;52.962;6.196;2024-02-21T04:15:56;21.02;;;7.60;;
57443;SDS011;43289;52.962;6.196;2024-02-21T04:18:22;22.52;;;7.13;;
57443;SDS011;43289;52.962;6.196;2024-02-21T04:20:48;23.60;;;8.15;;
57443;SDS011;43289;52.962;6.196;2024-02-21T04:23:14;18.02;;;6.32;;
57443;SDS011;43289;52.962;6.196;2024-02-21T04:25:40;22.10;;;7.03;;
57443;SDS011;43289;52.962;6.196;2024-02-21T04:28:06;22.38;;;7.18;;
57443;SDS011;43289;52.962;6.196;2024-02-21T04:30:32;20.50;;;6.75;;
57443;SDS011;43289;52.962;6.196;2024-02-21T04:32:58;20.13;;;7.07;;
57443;SDS011;43289;52.962;6.196;2024-02-21T04:35:25;16.00;;;5.20;;
57443;SDS011;43289;52.962;6.196;2024-02-21T04:37:51;17.92;;;6.43;;
57443;SDS011;43289;52.962;6.196;2024-02-21T04:40:17;24.98;;;7.72;;
57443;SDS011;43289;52.962;6.196;2024-02-21T04:42:43;18.77;;;7.15;;
57443;SDS011;43289;52.962;6.196;2024-02-21T04:45:10;20.98;;;7.38;;
57443;SDS011;43289;52.962;6.196;2024-02-21T04:47:39;22.98;;;7.68;;
57443;SDS011;43289;52.962;6.196;2024-02-21T04:50:06;26.92;;;9.75;;
57443;SDS011;43289;52.962;6.196;2024-02-21T04:52:32;26.73;;;8.48;;
57443;SDS011;43289;52.962;6.196;2024-02-21T04:54:59;25.08;;;8.63;;
57443;SDS011;43289;52.962;6.196;2024-02-21T04:57:25;24.70;;;8.23;;
57443;SDS011;43289;52.962;6.196;2024-02-21T04:59:51;20.35;;;7.63;;
57443;SDS011;43289;52.962;6.196;2024-02-21T05:02:17;25.15;;;8.68;;
57443;SDS011;43289;52.962;6.196;2024-02-21T05:04:47;19.65;;;6.35;;
57443;SDS011;43289;52.962;6.196;2024-02-21T05:07:14;26.58;;;8.25;;
57443;SDS011;43289;52.962;6.196;2024-02-21T05:09:40;19.98;;;8.05;;
57443;SDS011;43289;52.962;6.196;2024-02-21T05:12:08;20.13;;;7.43;;
57443;SDS011;43289;52.962;6.196;2024-02-21T05:14:38;21.10;;;8.38;;
57443;SDS011;43289;52.962;6.196;2024-02-21T05:17:04;22.63;;;8.00;;
57443;SDS011;43289;52.962;6.196;2024-02-21T05:19:30;18.48;;;6.70;;
57443;SDS011;43289;52.962;6.196;2024-02-21T05:21:56;19.95;;;7.53;;
57443;SDS011;43289;52.962;6.196;2024-02-21T05:24:22;25.90;;;8.73;;
57443;SDS011;43289;52.962;6.196;2024-02-21T05:26:51;22.05;;;7.57;;
57443;SDS011;43289;52.962;6.196;2024-02-21T05:29:18;23.60;;;8.85;;
57443;SDS011;43289;52.962;6.196;2024-02-21T05:32:02;20.20;;;8.68;;
57443;SDS011;43289;52.962;6.196;2024-02-21T05:34:33;19.13;;;9.20;;
57443;SDS011;43289;52.962;6.196;2024-02-21T05:36:59;29.83;;;9.95;;
57443;SDS011;43289;52.962;6.196;2024-02-21T05:39:26;24.73;;;9.90;;
57443;SDS011;43289;52.962;6.196;2024-02-21T05:41:54;26.60;;;10.50;;
57443;SDS011;43289;52.962;6.196;2024-02-21T05:44:20;33.83;;;12.70;;
57443;SDS011;43289;52.962;6.196;2024-02-21T05:46:47;26.15;;;12.82;;
57443;SDS011;43289;52.962;6.196;2024-02-21T05:49:13;42.13;;;13.48;;
57443;SDS011;43289;52.962;6.196;2024-02-21T05:51:40;34.78;;;12.80;;
57443;SDS011;43289;52.962;6.196;2024-02-21T05:54:06;33.88;;;14.43;;
57443;SDS011;43289;52.962;6.196;2024-02-21T05:56:32;30.98;;;11.80;;
57443;SDS011;43289;52.962;6.196;2024-02-21T05:58:59;27.77;;;12.63;;
57443;SDS011;43289;52.962;6.196;2024-02-21T06:01:25;36.00;;;12.57;;
57443;SDS011;43289;52.962;6.196;2024-02-21T06:03:51;32.35;;;14.75;;
57443;SDS011;43289;52.962;6.196;2024-02-21T06:06:17;31.95;;;12.88;;
57443;SDS011;43289;52.962;6.196;2024-02-21T06:08:45;40.60;;;12.10;;
57443;SDS011;43289;52.962;6.196;2024-02-21T06:11:11;41.78;;;11.90;;
57443;SDS011;43289;52.962;6.196;2024-02-21T06:13:38;31.42;;;11.00;;
57443;SDS011;43289;52.962;6.196;2024-02-21T06:19:09;27.08;;;9.80;;
57443;SDS011;43289;52.962;6.196;2024-02-21T06:21:48;35.47;;;9.75;;
57443;SDS011;43289;52.962;6.196;2024-02-21T06:24:20;39.22;;;10.85;;
57443;SDS011;43289;52.962;6.196;2024-02-21T06:26:56;38.08;;;11.02;;
57443;SDS011;43289;52.962;6.196;2024-02-21T06:29:23;32.95;;;8.73;;
57443;SDS011;43289;52.962;6.196;2024-02-21T06:31:49;27.70;;;8.73;;
57443;SDS011;43289;52.962;6.196;2024-02-21T06:34:15;30.60;;;8.90;;
57443;SDS011;43289;52.962;6.196;2024-02-21T06:36:42;35.40;;;8.98;;
57443;SDS011;43289;52.962;6.196;2024-02-21T06:39:08;32.03;;;10.00;;
57443;SDS011;43289;52.962;6.196;2024-02-21T06:41:36;29.60;;;8.35;;
57443;SDS011;43289;52.962;6.196;2024-02-21T06:44:02;33.40;;;8.50;;
57443;SDS011;43289;52.962;6.196;2024-02-21T06:46:29;23.67;;;6.47;;
57443;SDS011;43289;52.962;6.196;2024-02-21T06:48:56;30.52;;;7.30;;
57443;SDS011;43289;52.962;6.196;2024-02-21T06:51:22;27.98;;;7.88;;
57443;SDS011;43289;52.962;6.196;2024-02-21T06:53:50;24.10;;;6.53;;
57443;SDS011;43289;52.962;6.196;2024-02-21T06:56:17;25.50;;;6.85;;
57443;SDS011;43289;52.962;6.196;2024-02-21T06:58:44;22.60;;;7.10;;
57443;SDS011;43289;52.962;6.196;2024-02-21T07:01:10;23.77;;;6.95;;
57443;SDS011;43289;52.962;6.196;2024-02-21T07:03:37;36.78;;;8.70;;
57443;SDS011;43289;52.962;6.196;2024-02-21T07:06:04;18.38;;;7.35;;
57443;SDS011;43289;52.962;6.196;2024-02-21T07:08:30;18.73;;;6.72;;
57443;SDS011;43289;52.962;6.196;2024-02-21T07:10:56;22.13;;;7.95;;
57443;SDS011;43289;52.962;6.196;2024-02-21T07:13:22;17.15;;;6.43;;
57443;SDS011;43289;52.962;6.196;2024-02-21T07:15:48;18.15;;;6.18;;
57443;SDS011;43289;52.962;6.196;2024-02-21T07:18:14;23.02;;;6.75;;
57443;SDS011;43289;52.962;6.196;2024-02-21T07:20:40;15.30;;;5.72;;
57443;SDS011;43289;52.962;6.196;2024-02-21T07:23:07;20.25;;;6.90;;
57443;SDS011;43289;52.962;6.196;2024-02-21T07:25:34;16.23;;;6.30;;
57443;SDS011;43289;52.962;6.196;2024-02-21T07:28:00;19.50;;;5.93;;
57443;SDS011;43289;52.962;6.196;2024-02-21T07:30:27;15.65;;;6.63;;
57443;SDS011;43289;52.962;6.196;2024-02-21T07:32:53;15.98;;;5.40;;
57443;SDS011;43289;52.962;6.196;2024-02-21T07:35:19;20.10;;;7.55;;
57443;SDS011;43289;52.962;6.196;2024-02-21T07:37:45;15.63;;;7.05;;
57443;SDS011;43289;52.962;6.196;2024-02-21T07:40:15;19.17;;;6.15;;
57443;SDS011;43289;52.962;6.196;2024-02-21T07:42:41;21.15;;;7.00;;
57443;SDS011;43289;52.962;6.196;2024-02-21T07:45:08;17.40;;;6.93;;
57443;SDS011;43289;52.962;6.196;2024-02-21T07:47:35;23.63;;;6.72;;
57443;SDS011;43289;52.962;6.196;2024-02-21T07:50:03;18.27;;;6.65;;
57443;SDS011;43289;52.962;6.196;2024-02-21T07:52:29;19.52;;;6.38;;
57443;SDS011;43289;52.962;6.196;2024-02-21T07:54:55;23.15;;;8.18;;
57443;SDS011;43289;52.962;6.196;2024-02-21T07:57:22;22.83;;;9.27;;
57443;SDS011;43289;52.962;6.196;2024-02-21T07:59:48;18.48;;;8.25;;
57443;SDS011;43289;52.962;6.196;2024-02-21T08:02:15;19.45;;;11.05;;
57443;SDS011;43289;52.962;6.196;2024-02-21T08:04:41;19.20;;;10.13;;
57443;SDS011;43289;52.962;6.196;2024-02-21T08:07:16;28.30;;;10.88;;
57443;SDS011;43289;52.962;6.196;2024-02-21T08:09:45;28.70;;;12.65;;
57443;SDS011;43289;52.962;6.196;2024-02-21T08:12:12;24.25;;;12.38;;
57443;SDS011;43289;52.962;6.196;2024-02-21T08:14:38;22.70;;;11.70;;
57443;SDS011;43289;52.962;6.196;2024-02-21T08:17:09;26.65;;;12.10;;
57443;SDS011;43289;52.962;6.196;2024-02-21T08:19:36;22.83;;;12.10;;
57443;SDS011;43289;52.962;6.196;2024-02-21T08:22:04;27.20;;;13.18;;
57443;SDS011;43289;52.962;6.196;2024-02-21T08:24:53;23.83;;;11.95;;
57443;SDS011;43289;52.962;6.196;2024-02-21T08:27:20;23.75;;;13.27;;
57443;SDS011;43289;52.962;6.196;2024-02-21T08:29:46;23.95;;;13.63;;
57443;SDS011;43289;52.962;6.196;2024-02-21T08:32:12;23.67;;;13.43;;
57443;SDS011;43289;52.962;6.196;2024-02-21T08:34:40;27.20;;;14.10;;
57443;SDS011;43289;52.962;6.196;2024-02-21T08:37:07;25.27;;;14.32;;
57443;SDS011;43289;52.962;6.196;2024-02-21T08:39:35;21.88;;;13.10;;
57443;SDS011;43289;52.962;6.196;2024-02-21T08:42:15;23.38;;;12.32;;
57443;SDS011;43289;52.962;6.196;2024-02-21T08:44:44;21.25;;;12.98;;
57443;SDS011;43289;52.962;6.196;2024-02-21T08:47:10;22.05;;;14.45;;
57443;SDS011;43289;52.962;6.196;2024-02-21T08:49:37;24.60;;;13.73;;
57443;SDS011;43289;52.962;6.196;2024-02-21T08:52:04;21.70;;;13.82;;
57443;SDS011;43289;52.962;6.196;2024-02-21T08:54:31;23.63;;;14.38;;
57443;SDS011;43289;52.962;6.196;2024-02-21T08:57:00;23.92;;;14.63;;
57443;SDS011;43289;52.962;6.196;2024-02-21T08:59:26;26.80;;;13.25;;
57443;SDS011;43289;52.962;6.196;2024-02-21T09:01:52;21.77;;;13.43;;
57443;SDS011;43289;52.962;6.196;2024-02-21T09:04:18;22.90;;;13.50;;
57443;SDS011;43289;52.962;6.196;2024-02-21T09:06:45;18.92;;;12.27;;
57443;SDS011;43289;52.962;6.196;2024-02-21T09:09:11;22.42;;;13.52;;
57443;SDS011;43289;52.962;6.196;2024-02-21T09:11:38;26.58;;;13.95;;
57443;SDS011;43289;52.962;6.196;2024-02-21T09:14:05;28.05;;;14.85;;
57443;SDS011;43289;52.962;6.196;2024-02-21T09:16:31;22.55;;;13.07;;
57443;SDS011;43289;52.962;6.196;2024-02-21T09:18:58;21.77;;;13.13;;
57443;SDS011;43289;52.962;6.196;2024-02-21T09:21:24;23.10;;;13.80;;
57443;SDS011;43289;52.962;6.196;2024-02-21T09:23:50;20.50;;;14.32;;
57443;SDS011;43289;52.962;6.196;2024-02-21T09:26:16;21.15;;;13.57;;
57443;SDS011;43289;52.962;6.196;2024-02-21T09:28:42;20.25;;;12.63;;
57443;SDS011;43289;52.962;6.196;2024-02-21T09:31:11;21.50;;;12.98;;
57443;SDS011;43289;52.962;6.196;2024-02-21T09:33:39;24.85;;;13.27;;
57443;SDS011;43289;52.962;6.196;2024-02-21T09:36:05;21.42;;;12.77;;
57443;SDS011;43289;52.962;6.196;2024-02-21T09:38:31;19.55;;;13.38;;
57443;SDS011;43289;52.962;6.196;2024-02-21T09:41:21;19.95;;;12.98;;
57443;SDS011;43289;52.962;6.196;2024-02-21T09:43:44;21.60;;;12.85;;
57443;SDS011;43289;52.962;6.196;2024-02-21T09:46:18;24.52;;;15.27;;
57443;SDS011;43289;52.962;6.196;2024-02-21T09:51:16;25.27;;;15.25;;
57443;SDS011;43289;52.962;6.196;2024-02-21T09:53:42;25.63;;;15.95;;
57443;SDS011;43289;52.962;6.196;2024-02-21T09:56:09;28.80;;;15.95;;
57443;SDS011;43289;52.962;6.196;2024-02-21T09:58:35;31.48;;;16.10;;
57443;SDS011;43289;52.962;6.196;2024-02-21T10:01:01;23.50;;;15.52;;
57443;SDS011;43289;52.962;6.196;2024-02-21T10:03:31;28.80;;;16.92;;
57443;SDS011;43289;52.962;6.196;2024-02-21T10:05:58;26.50;;;16.48;;
57443;SDS011;43289;52.962;6.196;2024-02-21T10:08:28;23.55;;;16.85;;
57443;SDS011;43289;52.962;6.196;2024-02-21T10:10:54;23.17;;;15.77;;
57443;SDS011;43289;52.962;6.196;2024-02-21T10:13:25;27.77;;;17.52;;
57443;SDS011;43289;52.962;6.196;2024-02-21T10:18:27;26.02;;;16.08;;
57443;SDS011;43289;52.962;6.196;2024-02-21T10:21:03;25.40;;;15.63;;
57443;SDS011;43289;52.962;6.196;2024-02-21T10:23:40;25.80;;;15.45;;
57443;SDS011;43289;52.962;6.196;2024-02-21T10:26:07;25.20;;;16.27;;
57443;SDS011;43289;52.962;6.196;2024-02-21T10:28:33;22.00;;;16.20;;
57443;SDS011;43289;52.962;6.196;2024-02-21T10:30:59;23.77;;;16.85;;
57443;SDS011;43289;52.962;6.196;2024-02-21T10:33:25;26.85;;;17.02;;
57443;SDS011;43289;52.962;6.196;2024-02-21T10:35:53;22.27;;;14.73;;
57443;SDS011;43289;52.962;6.196;2024-02-21T10:38:19;27.83;;;16.55;;
57443;SDS011;43289;52.962;6.196;2024-02-21T10:40:46;26.55;;;16.83;;
57443;SDS011;43289;52.962;6.196;2024-02-21T10:43:14;23.63;;;15.80;;
57443;SDS011;43289;52.962;6.196;2024-02-21T10:45:40;25.95;;;15.90;;
57443;SDS011;43289;52.962;6.196;2024-02-21T10:48:13;21.17;;;13.38;;
57443;SDS011;43289;52.962;6.196;2024-02-21T10:56:22;21.52;;;13.88;;
57443;SDS011;43289;52.962;6.196;2024-02-21T10:58:49;19.60;;;13.43;;
57443;SDS011;43289;52.962;6.196;2024-02-21T11:01:15;19.58;;;14.32;;
57443;SDS011;43289;52.962;6.196;2024-02-21T11:03:43;24.73;;;13.82;;
57443;SDS011;43289;52.962;6.196;2024-02-21T11:06:10;18.83;;;12.30;;
57443;SDS011;43289;52.962;6.196;2024-02-21T11:08:37;22.70;;;14.07;;
57443;SDS011;43289;52.962;6.196;2024-02-21T11:11:04;20.25;;;12.90;;
57443;SDS011;43289;52.962;6.196;2024-02-21T11:13:31;19.70;;;12.40;;
57443;SDS011;43289;52.962;6.196;2024-02-21T11:16:10;17.45;;;12.40;;
57443;SDS011;43289;52.962;6.196;2024-02-21T11:18:37;23.55;;;12.75;;
57443;SDS011;43289;52.962;6.196;2024-02-21T11:21:03;18.25;;;11.18;;
57443;SDS011;43289;52.962;6.196;2024-02-21T11:23:30;18.23;;;11.38;;
57443;SDS011;43289;52.962;6.196;2024-02-21T11:28:31;20.73;;;12.05;;
57443;SDS011;43289;52.962;6.196;2024-02-21T11:31:11;16.95;;;12.75;;
57443;SDS011;43289;52.962;6.196;2024-02-21T11:33:40;15.48;;;11.27;;
57443;SDS011;43289;52.962;6.196;2024-02-21T11:36:10;17.02;;;11.18;;
57443;SDS011;43289;52.962;6.196;2024-02-21T11:38:36;17.98;;;11.15;;
57443;SDS011;43289;52.962;6.196;2024-02-21T11:41:02;13.82;;;10.45;;
57443;SDS011;43289;52.962;6.196;2024-02-21T11:43:29;21.35;;;10.77;;
57443;SDS011;43289;52.962;6.196;2024-02-21T11:45:58;16.48;;;10.38;;
57443;SDS011;43289;52.962;6.196;2024-02-21T11:48:25;15.75;;;10.27;;
57443;SDS011;43289;52.962;6.196;2024-02-21T11:50:54;14.43;;;9.88;;
57443;SDS011;43289;52.962;6.196;2024-02-21T11:53:21;15.45;;;9.90;;
57443;SDS011;43289;52.962;6.196;2024-02-21T11:55:47;17.33;;;10.13;;
57443;SDS011;43289;52.962;6.196;2024-02-21T11:58:14;15.38;;;9.02;;
57443;SDS011;43289;52.962;6.196;2024-02-21T12:00:40;13.18;;;9.20;;
57443;SDS011;43289;52.962;6.196;2024-02-21T12:03:07;17.60;;;10.35;;
57443;SDS011;43289;52.962;6.196;2024-02-21T12:05:33;13.65;;;9.52;;
57443;SDS011;43289;52.962;6.196;2024-02-21T12:08:00;12.48;;;9.10;;
57443;SDS011;43289;52.962;6.196;2024-02-21T12:10:26;15.98;;;8.73;;
57443;SDS011;43289;52.962;6.196;2024-02-21T12:12:52;14.73;;;8.75;;
57443;SDS011;43289;52.962;6.196;2024-02-21T12:15:23;16.27;;;8.82;;
57443;SDS011;43289;52.962;6.196;2024-02-21T12:17:49;13.63;;;9.02;;
57443;SDS011;43289;52.962;6.196;2024-02-21T12:20:16;12.35;;;7.93;;
57443;SDS011;43289;52.962;6.196;2024-02-21T12:22:43;13.32;;;8.18;;
57443;SDS011;43289;52.962;6.196;2024-02-21T12:25:19;11.40;;;7.93;;
57443;SDS011;43289;52.962;6.196;2024-02-21T12:27:47;11.73;;;7.53;;
57443;SDS011;43289;52.962;6.196;2024-02-21T12:30:14;12.57;;;7.57;;
57443;SDS011;43289;52.962;6.196;2024-02-21T12:32:40;12.25;;;8.35;;
57443;SDS011;43289;52.962;6.196;2024-02-21T12:35:06;14.45;;;7.57;;
57443;SDS011;43289;52.962;6.196;2024-02-21T12:37:33;11.82;;;7.68;;
57443;SDS011;43289;52.962;6.196;2024-02-21T12:39:59;12.38;;;7.22;;
57443;SDS011;43289;52.962;6.196;2024-02-21T12:42:25;11.07;;;6.88;;
57443;SDS011;43289;52.962;6.196;2024-02-21T12:44:52;15.07;;;8.68;;
57443;SDS011;43289;52.962;6.196;2024-02-21T12:47:18;11.07;;;7.47;;
57443;SDS011;43289;52.962;6.196;2024-02-21T12:49:48;12.57;;;7.18;;
57443;SDS011;43289;52.962;6.196;2024-02-21T12:52:14;12.82;;;6.55;;
57443;SDS011;43289;52.962;6.196;2024-02-21T12:54:41;11.30;;;7.03;;
57443;SDS011;43289;52.962;6.196;2024-02-21T12:57:10;10.18;;;6.38;;
57443;SDS011;43289;52.962;6.196;2024-02-21T12:59:36;10.60;;;6.20;;
57443;SDS011;43289;52.962;6.196;2024-02-21T13:02:02;12.32;;;7.38;;
57443;SDS011;43289;52.962;6.196;2024-02-21T13:04:28;9.15;;;6.47;;
57443;SDS011;43289;52.962;6.196;2024-02-21T13:06:54;10.32;;;6.68;;
57443;SDS011;43289;52.962;6.196;2024-02-21T13:09:23;11.35;;;7.13;;
57443;SDS011;43289;52.962;6.196;2024-02-21T13:11:49;11.82;;;6.85;;
57443;SDS011;43289;52.962;6.196;2024-02-21T13:14:16;13.02;;;6.90;;
57443;SDS011;43289;52.962;6.196;2024-02-21T13:16:42;15.93;;;7.70;;
57443;SDS011;43289;52.962;6.196;2024-02-21T13:19:08;10.85;;;7.78;;
57443;SDS011;43289;52.962;6.196;2024-02-21T13:21:35;12.43;;;7.68;;
57443;SDS011;43289;52.962;6.196;2024-02-21T13:24:01;12.38;;;6.70;;
57443;SDS011;43289;52.962;6.196;2024-02-21T13:26:28;9.00;;;6.13;;
57443;SDS011;43289;52.962;6.196;2024-02-21T13:28:54;10.23;;;6.22;;
57443;SDS011;43289;52.962;6.196;2024-02-21T13:31:20;9.18;;;6.20;;
57443;SDS011;43289;52.962;6.196;2024-02-21T13:33:46;7.57;;;5.00;;
57443;SDS011;43289;52.962;6.196;2024-02-21T13:36:12;9.18;;;6.22;;
57443;SDS011;43289;52.962;6.196;2024-02-21T13:38:38;10.02;;;5.90;;
57443;SDS011;43289;52.962;6.196;2024-02-21T13:41:05;9.13;;;6.53;;
57443;SDS011;43289;52.962;6.196;2024-02-21T13:43:32;9.48;;;5.53;;
57443;SDS011;43289;52.962;6.196;2024-02-21T13:45:58;9.80;;;6.85;;
57443;SDS011;43289;52.962;6.196;2024-02-21T13:48:24;9.40;;;6.03;;
57443;SDS011;43289;52.962;6.196;2024-02-21T13:50:52;9.93;;;6.93;;
57443;SDS011;43289;52.962;6.196;2024-02-21T13:53:18;8.10;;;5.78;;
57443;SDS011;43289;52.962;6.196;2024-02-21T13:55:47;11.75;;;6.95;;
57443;SDS011;43289;52.962;6.196;2024-02-21T13:58:13;8.57;;;5.90;;
57443;SDS011;43289;52.962;6.196;2024-02-21T14:00:39;9.13;;;6.40;;
57443;SDS011;43289;52.962;6.196;2024-02-21T14:03:05;9.82;;;6.22;;
57443;SDS011;43289;52.962;6.196;2024-02-21T14:05:31;8.60;;;6.43;;
57443;SDS011;43289;52.962;6.196;2024-02-21T14:07:57;9.00;;;5.47;;
57443;SDS011;43289;52.962;6.196;2024-02-21T14:10:23;9.25;;;6.18;;
57443;SDS011;43289;52.962;6.196;2024-02-21T14:12:49;10.93;;;5.97;;
57443;SDS011;43289;52.962;6.196;2024-02-21T14:15:15;8.48;;;5.70;;
57443;SDS011;43289;52.962;6.196;2024-02-21T14:17:42;9.50;;;6.68;;
57443;SDS011;43289;52.962;6.196;2024-02-21T14:20:08;8.23;;;6.13;;
57443;SDS011;43289;52.962;6.196;2024-02-21T14:22:35;7.95;;;6.10;;
57443;SDS011;43289;52.962;6.196;2024-02-21T14:25:03;9.10;;;5.85;;
57443;SDS011;43289;52.962;6.196;2024-02-21T14:27:30;10.88;;;6.78;;
57443;SDS011;43289;52.962;6.196;2024-02-21T14:29:57;9.38;;;7.05;;
57443;SDS011;43289;52.962;6.196;2024-02-21T14:32:23;8.10;;;6.03;;
57443;SDS011;43289;52.962;6.196;2024-02-21T14:34:49;9.27;;;6.65;;
57443;SDS011;43289;52.962;6.196;2024-02-21T14:37:15;12.10;;;6.47;;
57443;SDS011;43289;52.962;6.196;2024-02-21T14:39:41;8.30;;;6.20;;
57443;SDS011;43289;52.962;6.196;2024-02-21T14:42:08;11.43;;;6.15;;
57443;SDS011;43289;52.962;6.196;2024-02-21T14:44:37;11.45;;;6.70;;
57443;SDS011;43289;52.962;6.196;2024-02-21T14:47:03;8.30;;;5.93;;